Dades meteomassalio
Diari Summary for Diciembre 17, 2017 Units:  Metric    English   Both
« Previous Day
Next Day »
Diari Semanal Mensual Anual Personalitzat
  Maxima: Minima: Mijana:
Temperatura: -17.8 °C -18.1 °C -14.8 °C
Rosada: -17.8 °C -19.9 °C -17.7 °C
Humitat: Humidity % 49 % 70 %
Velocitat del vent: 0 km/h 0 km/h 29.8 km/h
Racha vent: 0 km/h - -
Vent:- - NW
Pressio: 0 hPa 34831.8 hPa -
Pluja: 0 mm    
Historical Graphs
 
 
Tabular Data for Diciembre 17, 2017
Time Temperature Dew Point Pressure Wind Wind Speed Wind Gust Humidity Rainfall Rate (Hourly) solar Conditions
-17.8 °C -17.8 °C 0 hPa Calm     Humidity % 0 mm SolarRadiationWatts/m^2 W/m2 Conditions
00:01 -15.3 °C -17.4 °C 34841.9 hPa NNW 28.5 km/h 28.5 km/h 76 % 0 mm 0.0 W/m2 CLR
00:03 -15.6 °C -17.7 °C 34841.9 hPa NW 9 km/h 9 km/h 76 % 0 mm 0.0 W/m2 CLR
00:07 -15.6 °C -17.7 °C 34841.9 hPa WNW 23.8 km/h 23.8 km/h 76 % 0 mm 0.0 W/m2 CLR
00:10 -15.6 °C -17.7 °C 34841.9 hPa WNW 20.9 km/h 20.9 km/h 76 % 0 mm 0.0 W/m2 CLR
00:12 -15.6 °C -17.7 °C 34841.9 hPa WNW 26.9 km/h 26.9 km/h 76 % 0 mm 0.0 W/m2 CLR
00:18 -15.6 °C -17.9 °C 34841.9 hPa NW 31.1 km/h 31.1 km/h 75 % 0 mm 0.0 W/m2 CLR
00:23 -15.6 °C -17.9 °C 34841.9 hPa NW 29.8 km/h 29.8 km/h 75 % 0 mm 0.0 W/m2 CLR
00:25 -15.6 °C -17.9 °C 34841.9 hPa NW 31.1 km/h 31.1 km/h 75 % 0 mm 0.0 W/m2 CLR
00:30 -15.6 °C -17.9 °C 34841.9 hPa NW 29.8 km/h 29.8 km/h 75 % 0 mm 0.0 W/m2 CLR
00:32 -15.6 °C -17.9 °C 34841.9 hPa NW 32.8 km/h 32.8 km/h 75 % 0 mm 0.0 W/m2 CLR
00:33 -15.6 °C -17.9 °C 34841.9 hPa NW 38.8 km/h 38.8 km/h 75 % 0 mm 0.0 W/m2 CLR
00:38 -15.6 °C -17.9 °C 34841.9 hPa NW 44.7 km/h 44.7 km/h 75 % 0 mm 0.0 W/m2 CLR
00:40 -15.6 °C -17.9 °C 34841.9 hPa NW 44.7 km/h 44.7 km/h 75 % 0 mm 0.0 W/m2 CLR
00:43 -15.6 °C -17.9 °C 34841.9 hPa NW 47.6 km/h 47.6 km/h 75 % 0 mm 0.0 W/m2 CLR
00:45 -15.6 °C -17.9 °C 34841.9 hPa NNW 44.7 km/h 44.7 km/h 75 % 0 mm 0.0 W/m2 CLR
00:50 -15.6 °C -17.9 °C 34841.9 hPa NNW 50.7 km/h 50.7 km/h 75 % 0 mm 0.0 W/m2 CLR
00:55 -15.6 °C -17.9 °C 34841.9 hPa NW 35.7 km/h 35.7 km/h 75 % 0 mm 0.0 W/m2 CLR
00:58 -15.6 °C -17.9 °C 34841.9 hPa NNW 38.8 km/h 38.8 km/h 75 % 0 mm 0.0 W/m2 CLR
01:01 -15.6 °C -17.9 °C 34841.9 hPa NW 29.8 km/h 29.8 km/h 75 % 0 mm 0.0 W/m2 CLR
01:06 -15.6 °C -17.9 °C 34841.9 hPa NW 29.8 km/h 29.8 km/h 75 % 0 mm 0.0 W/m2 CLR
01:11 -15.6 °C -17.9 °C 34841.9 hPa NW 44.7 km/h 44.7 km/h 75 % 0 mm 0.0 W/m2 CLR
01:12 -15.6 °C -17.9 °C 34831.8 hPa NW 44.7 km/h 44.7 km/h 75 % 0 mm 0.0 W/m2 CLR
01:17 -15.6 °C -17.9 °C 34831.8 hPa NW 33.6 km/h 33.6 km/h 75 % 0 mm 0.0 W/m2 CLR
01:19 -15.6 °C -17.9 °C 34831.8 hPa NW 38.8 km/h 38.8 km/h 75 % 0 mm 0.0 W/m2 CLR
01:23 -15.6 °C -17.9 °C 34841.9 hPa NW 38.8 km/h 38.8 km/h 75 % 0 mm 0.0 W/m2 CLR
01:25 -15.6 °C -17.9 °C 34841.9 hPa NW 33.6 km/h 33.6 km/h 75 % 0 mm 0.0 W/m2 CLR
01:29 -15.6 °C -17.9 °C 34841.9 hPa NW 35.7 km/h 35.7 km/h 75 % 0 mm 0.0 W/m2 CLR
01:34 -15.6 °C -17.7 °C 34841.9 hPa NW 41.7 km/h 41.7 km/h 76 % 0 mm 0.0 W/m2 CLR
01:39 -15.6 °C -17.7 °C 34831.8 hPa WNW 46.7 km/h 46.7 km/h 76 % 0 mm 0.0 W/m2 CLR
01:40 -15.6 °C -17.7 °C 34831.8 hPa WNW 41.7 km/h 41.7 km/h 76 % 0 mm 0.0 W/m2 CLR
01:41 -15.6 °C -17.7 °C 34831.8 hPa NW 47.6 km/h 47.6 km/h 76 % 0 mm 0.0 W/m2 CLR
01:45 -15.6 °C -17.7 °C 34831.8 hPa NNW 47.6 km/h 47.6 km/h 76 % 0 mm 0.0 W/m2 CLR
01:48 -15.6 °C -17.7 °C 34831.8 hPa NW 41.4 km/h 41.4 km/h 76 % 0 mm 0.0 W/m2 CLR
01:52 -15.6 °C -17.7 °C 34831.8 hPa NNW 44.7 km/h 44.7 km/h 77 % 0 mm 0.0 W/m2 CLR
01:53 -15.6 °C -17.7 °C 34831.8 hPa NW 50.7 km/h 50.7 km/h 77 % 0 mm 0.0 W/m2 CLR
01:58 -15.6 °C -17.7 °C 34831.8 hPa NW 41.7 km/h 41.7 km/h 77 % 0 mm 0.0 W/m2 CLR
02:03 -15.6 °C -17.7 °C 34831.8 hPa NW 35.7 km/h 35.7 km/h 77 % 0 mm 0.0 W/m2 CLR
02:04 -15.6 °C -17.7 °C 34831.8 hPa NW 47.6 km/h 47.6 km/h 77 % 0 mm 0.0 W/m2 CLR
02:09 -15.6 °C -17.7 °C 34841.9 hPa NNW 36.2 km/h 36.2 km/h 77 % 0 mm 0.0 W/m2 CLR
02:10 -15.6 °C -17.7 °C 34841.9 hPa NW 50.7 km/h 50.7 km/h 77 % 0 mm 0.0 W/m2 CLR
02:12 -15.6 °C -17.6 °C 34831.8 hPa NW 50.7 km/h 50.7 km/h 78 % 0 mm 0.0 W/m2 CLR
02:16 -15.6 °C -17.7 °C 34841.9 hPa NW 41.7 km/h 41.7 km/h 77 % 0 mm 0.0 W/m2 CLR
02:17 -15.6 °C -17.7 °C 34841.9 hPa North 50.7 km/h 50.7 km/h 77 % 0 mm 0.0 W/m2 CLR
02:22 -15.6 °C -17.7 °C 34831.8 hPa NNW 47.6 km/h 47.6 km/h 77 % 0 mm 0.0 W/m2 CLR
02:27 -15.6 °C -17.7 °C 34841.9 hPa NNW 26.9 km/h 26.9 km/h 77 % 0 mm 0.0 W/m2 CLR
02:29 -15.6 °C -17.7 °C 34841.9 hPa NW 26.9 km/h 26.9 km/h 77 % 0 mm 0.0 W/m2 CLR
02:33 -15.9 °C -17.9 °C 34841.9 hPa NW 20.9 km/h 20.9 km/h 77 % 0 mm 0.0 W/m2 CLR
02:36 -15.9 °C -17.9 °C 34841.9 hPa NW 29.8 km/h 29.8 km/h 77 % 0 mm 0.0 W/m2 CLR
02:38 -15.9 °C -17.9 °C 34841.9 hPa NW 23.8 km/h 23.8 km/h 77 % 0 mm 0.0 W/m2 CLR
02:43 -15.9 °C -17.9 °C 34841.9 hPa NW 32.8 km/h 32.8 km/h 77 % 0 mm 0.0 W/m2 CLR
02:46 -15.9 °C -17.9 °C 34841.9 hPa NW 29.8 km/h 29.8 km/h 77 % 0 mm 0.0 W/m2 CLR
02:51 -15.9 °C -17.9 °C 34841.9 hPa WNW 29.8 km/h 29.8 km/h 77 % 0 mm 0.0 W/m2 CLR
02:52 -15.9 °C -17.9 °C 34841.9 hPa NW 29.8 km/h 29.8 km/h 77 % 0 mm 0.0 W/m2 CLR
02:57 -15.9 °C -17.9 °C 34852.1 hPa NW 29.8 km/h 29.8 km/h 77 % 0 mm 0.0 W/m2 CLR
03:02 -15.9 °C -17.9 °C 34852.1 hPa NW 26.9 km/h 26.9 km/h 77 % 0 mm 0.0 W/m2 CLR
03:03 -15.9 °C -17.9 °C 34852.1 hPa NW 20.9 km/h 20.9 km/h 77 % 0 mm 0.0 W/m2 CLR
03:08 -15.9 °C -17.9 °C 34852.1 hPa West 20.9 km/h 20.9 km/h 77 % 0 mm 0.0 W/m2 CLR
03:09 -15.9 °C -17.9 °C 34852.1 hPa NW 20.9 km/h 20.9 km/h 77 % 0 mm 0.0 W/m2 CLR
03:14 -15.9 °C -17.9 °C 34852.1 hPa WNW 20.8 km/h 20.8 km/h 77 % 0 mm 0.0 W/m2 CLR
03:19 -15.9 °C -17.9 °C 34852.1 hPa West 26.9 km/h 26.9 km/h 77 % 0 mm 0.0 W/m2 CLR
03:20 -15.9 °C -17.9 °C 34852.1 hPa West 15 km/h 15 km/h 77 % 0 mm 0.0 W/m2 CLR
03:23 -16.2 °C -18.4 °C 34852.1 hPa WNW 23.8 km/h 23.8 km/h 76 % 0 mm 0.0 W/m2 CLR
03:26 -15.9 °C -18.1 °C 34852.1 hPa Calm     76 % 0 mm 0.0 W/m2 CLR
03:31 -15.9 °C -18.1 °C 34852.1 hPa Calm     76 % 0 mm 0.0 W/m2 CLR
03:36 -15.9 °C -17.9 °C 34852.1 hPa WSW 15 km/h 15 km/h 77 % 0 mm 0.0 W/m2 CLR
03:39 -15.6 °C -17.7 °C 34852.1 hPa West 11.9 km/h 11.9 km/h 77 % 0 mm 0.0 W/m2 CLR
03:41 -15.6 °C -17.7 °C 34852.1 hPa West 26.9 km/h 26.9 km/h 77 % 0 mm 0.0 W/m2 CLR
03:44 -15.6 °C -17.7 °C 34852.1 hPa WNW 38.8 km/h 38.8 km/h 77 % 0 mm 0.0 W/m2 CLR
03:49 -15.6 °C -17.7 °C 34852.1 hPa Calm     76 % 0 mm 0.0 W/m2 CLR
03:50 -15.6 °C -17.7 °C 34852.1 hPa Calm     76 % 0 mm 0.0 W/m2 CLR
03:55 -15.6 °C -17.7 °C 34852.1 hPa West 20.9 km/h 20.9 km/h 77 % 0 mm 0.0 W/m2 CLR
03:56 -15.6 °C -17.7 °C 34865.6 hPa West 11.9 km/h 11.9 km/h 77 % 0 mm 0.0 W/m2 CLR
04:01 -15.6 °C -17.7 °C 34865.6 hPa NW 3.1 km/h 3.1 km/h 76 % 0 mm 0.0 W/m2 CLR
04:02 -15.6 °C -17.7 °C 34865.6 hPa WNW 9 km/h 9 km/h 76 % 0 mm 0.0 W/m2 CLR
04:05 -15.6 °C -17.7 °C 34865.6 hPa WNW 11.9 km/h 11.9 km/h 77 % 0 mm 0.0 W/m2 CLR
04:10 -15.9 °C -17.9 °C 34865.6 hPa NW 29.8 km/h 29.8 km/h 77 % 0 mm 0.0 W/m2 CLR
04:11 -15.9 °C -18.1 °C 34865.6 hPa WNW 23.8 km/h 23.8 km/h 76 % 0 mm 0.0 W/m2 CLR
04:13 -15.9 °C -18.1 °C 34865.6 hPa NW 23.3 km/h 23.3 km/h 76 % 0 mm 0.0 W/m2 CLR
04:17 -15.9 °C -18.1 °C 34865.6 hPa NW 23.8 km/h 23.8 km/h 76 % 0 mm 0.0 W/m2 CLR
04:18 -15.9 °C -18.1 °C 34852.1 hPa NW 33.6 km/h 33.6 km/h 76 % 0 mm 0.0 W/m2 CLR
04:23 -15.9 °C -18.1 °C 34865.6 hPa NW 29.8 km/h 29.8 km/h 76 % 0 mm 0.0 W/m2 CLR
04:27 -15.9 °C -18.1 °C 34852.1 hPa NW 33.6 km/h 33.6 km/h 76 % 0 mm 0.0 W/m2 CLR
04:29 -15.9 °C -18.1 °C 34852.1 hPa NW 23.8 km/h 23.8 km/h 76 % 0 mm 0.0 W/m2 CLR
04:34 -15.9 °C -18.1 °C 34852.1 hPa WNW 29.8 km/h 29.8 km/h 76 % 0 mm 0.0 W/m2 CLR
04:39 -15.9 °C -18.1 °C 34852.1 hPa West 15.6 km/h 15.6 km/h 76 % 0 mm 0.0 W/m2 CLR
04:40 -15.9 °C -18.1 °C 34852.1 hPa WNW 15.6 km/h 15.6 km/h 76 % 0 mm 0.0 W/m2 CLR
04:45 -15.9 °C -18.1 °C 34852.1 hPa SW 3.1 km/h   76 % 0 mm 0.0 W/m2 CLR
04:50 -16.2 °C -18.4 °C 34852.1 hPa SW 11.9 km/h 11.9 km/h 76 % 0 mm 0.0 W/m2 CLR
04:52 -16.2 °C -18.2 °C 34852.1 hPa Calm     77 % 0 mm 0.0 W/m2 CLR
04:57 -15.9 °C -17.9 °C 34852.1 hPa WNW 20.8 km/h 20.8 km/h 77 % 0 mm 0.0 W/m2 CLR
05:02 -16.2 °C -18.2 °C 34852.1 hPa WNW 20.9 km/h 20.9 km/h 78 % 0 mm 0.0 W/m2 CLR
05:04 -16.2 °C -18.2 °C 34852.1 hPa WNW 17.9 km/h 17.9 km/h 78 % 0 mm 0.0 W/m2 CLR
05:07 -16.2 °C -18.2 °C 34852.1 hPa WNW 26.9 km/h 26.9 km/h 78 % 0 mm 0.0 W/m2 CLR
05:09 -16.2 °C -18.2 °C 34852.1 hPa WNW 20.9 km/h 20.9 km/h 77 % 0 mm 0.0 W/m2 CLR
05:14 -16.2 °C -18.2 °C 34852.1 hPa WNW 38.8 km/h 38.8 km/h 77 % 0 mm 0.0 W/m2 CLR
05:15 -16.2 °C -18.2 °C 34852.1 hPa NW 26.9 km/h 26.9 km/h 77 % 0 mm 0.0 W/m2 CLR
05:20 -16.2 °C -18.2 °C 34852.1 hPa NW 26.9 km/h 26.9 km/h 77 % 0 mm 0.0 W/m2 CLR
05:21 -16.2 °C -18.2 °C 34865.6 hPa West 26.9 km/h 26.9 km/h 77 % 0 mm 0.0 W/m2 CLR
05:26 -16.2 °C -18.2 °C 34865.6 hPa WNW 29.8 km/h 29.8 km/h 77 % 0 mm 0.0 W/m2 CLR
05:27 -16.2 °C -18.2 °C 34865.6 hPa West 29.8 km/h 29.8 km/h 77 % 0 mm 0.0 W/m2 CLR
05:32 -16.2 °C -18.2 °C 34865.6 hPa West 32.8 km/h 32.8 km/h 77 % 0 mm 0.0 W/m2 CLR
05:37 -16.2 °C -18.2 °C 34865.6 hPa West 29.8 km/h 29.8 km/h 78 % 0 mm 0.0 W/m2 CLR
05:42 -16.2 °C -18.2 °C 34875.8 hPa WNW 17.9 km/h 17.9 km/h 77 % 0 mm 0.0 W/m2 CLR
05:43 -16.2 °C -18.2 °C 34875.8 hPa WNW 20.9 km/h 20.9 km/h 77 % 0 mm 0.0 W/m2 CLR
05:44 -16.2 °C -18.2 °C 34875.8 hPa WNW 17.9 km/h 17.9 km/h 77 % 0 mm 0.0 W/m2 CLR
05:48 -16.6 °C -18.4 °C 34875.8 hPa WNW 23.3 km/h 23.3 km/h 78 % 0 mm 0.0 W/m2 CLR
05:53 -16.6 °C -18.4 °C 34875.8 hPa West 23.3 km/h 23.3 km/h 78 % 0 mm 0.0 W/m2 CLR
05:54 -16.6 °C -18.4 °C 34875.8 hPa WNW 29.8 km/h 29.8 km/h 78 % 0 mm 0.0 W/m2 CLR
05:59 -16.6 °C -18.4 °C 34875.8 hPa WNW 11.9 km/h 11.9 km/h 78 % 0 mm 0.0 W/m2 CLR
06:04 -16.6 °C -18.4 °C 34875.8 hPa West 29.8 km/h 29.8 km/h 79 % 0 mm 0.0 W/m2 CLR
06:05 -16.6 °C -18.4 °C 34875.8 hPa WNW 35.7 km/h 35.7 km/h 79 % 0 mm 0.0 W/m2 CLR
06:09 -16.6 °C -18.4 °C 34875.8 hPa WNW 29.8 km/h 29.8 km/h 78 % 0 mm 0.0 W/m2 CLR
06:10 -16.8 °C -18.7 °C 34875.8 hPa WNW 28.5 km/h 28.5 km/h 79 % 0 mm 0.0 W/m2 CLR
06:15 -16.8 °C -18.7 °C 34875.8 hPa West 26.9 km/h 26.9 km/h 79 % 0 mm 0.0 W/m2 CLR
06:16 -16.8 °C -18.7 °C 34875.8 hPa WNW 25.9 km/h 25.9 km/h 79 % 0 mm 0.0 W/m2 CLR
06:21 -16.8 °C -18.7 °C 34875.8 hPa WNW 29.8 km/h 29.8 km/h 79 % 0 mm 0.0 W/m2 CLR
06:22 -16.8 °C -18.7 °C 34875.8 hPa WNW 26.9 km/h 26.9 km/h 79 % 0 mm 0.0 W/m2 CLR
06:26 -16.8 °C -18.7 °C 34875.8 hPa NW 23.8 km/h 23.8 km/h 79 % 0 mm 0.0 W/m2 CLR
06:28 -16.8 °C -18.7 °C 34875.8 hPa WNW 26.9 km/h 26.9 km/h 79 % 0 mm 0.0 W/m2 CLR
06:33 -16.8 °C -18.7 °C 34875.8 hPa WNW 23.8 km/h 23.8 km/h 79 % 0 mm 0.0 W/m2 CLR
06:35 -16.8 °C -18.7 °C 34889.3 hPa WNW 12.9 km/h 12.9 km/h 79 % 0 mm 0.0 W/m2 CLR
06:39 -16.8 °C -18.7 °C 34889.3 hPa West 23.8 km/h 23.8 km/h 79 % 0 mm 0.0 W/m2 CLR
06:41 -16.8 °C -18.7 °C 34889.3 hPa West 23.8 km/h 23.8 km/h 79 % 0 mm 0.0 W/m2 CLR
06:46 -17.2 °C -18.9 °C 34889.3 hPa NW 10.3 km/h 10.3 km/h 79 % 0 mm 0.0 W/m2 CLR
06:47 -17.2 °C -18.9 °C 34889.3 hPa NW 20.9 km/h 20.9 km/h 79 % 0 mm 0.0 W/m2 CLR
06:51 -17.4 °C -19.3 °C 34889.3 hPa WNW 20.9 km/h 20.9 km/h 79 % 0 mm 0.0 W/m2 CLR
06:56 -17.8 °C -19.6 °C 34889.3 hPa WNW 26.9 km/h 26.9 km/h 79 % 0 mm 0.0 W/m2 CLR
07:00 -17.8 °C -19.6 °C 34889.3 hPa WNW 23.3 km/h 23.3 km/h 79 % 0 mm 0.0 W/m2 CLR
07:02 -17.8 °C -19.6 °C 34889.3 hPa West 6 km/h 6 km/h 79 % 0 mm 0.0 W/m2 CLR
07:05 -17.8 °C -19.6 °C 34899.5 hPa WNW 15 km/h 15 km/h 79 % 0 mm 0.0 W/m2 CLR
07:08 -17.8 °C -19.6 °C 34899.5 hPa West 17.9 km/h 17.9 km/h 79 % 0 mm 0.0 W/m2 CLR
07:13 -18.1 °C -19.9 °C 34899.5 hPa West 15 km/h 15 km/h 78 % 0 mm 0.0 W/m2 CLR
07:18 -18.1 °C -19.8 °C 34889.3 hPa WNW 29.8 km/h 29.8 km/h 80 % 0 mm 0.0 W/m2 CLR
07:20 -18.1 °C -19.8 °C 34889.3 hPa WNW 20.9 km/h 20.9 km/h 80 % 0 mm 0.0 W/m2 CLR
07:25 -18.1 °C -19.8 °C 34889.3 hPa WNW 26.9 km/h 26.9 km/h 80 % 0 mm 0.0 W/m2 CLR
07:27 -18.1 °C -19.9 °C 34889.3 hPa West 20.9 km/h 20.9 km/h 79 % 0 mm 0.0 W/m2 CLR
07:31 -17.8 °C -19.6 °C 34889.3 hPa WNW 23.8 km/h 23.8 km/h 79 % 0 mm 0.0 W/m2 CLR
07:36 -17.8 °C -19.6 °C 34899.5 hPa WNW 29.8 km/h 29.8 km/h 79 % 0 mm 0.0 W/m2 CLR
07:37 -17.4 °C -19.3 °C 34899.5 hPa WNW 29.8 km/h 29.8 km/h 79 % 0 mm 0.0 W/m2 CLR
07:40 -17.4 °C -19.3 °C 34899.5 hPa WNW 29.8 km/h 29.8 km/h 79 % 0 mm 0.0 W/m2 CLR
07:42 -17.4 °C -19.3 °C 34899.5 hPa West 20.9 km/h 20.9 km/h 78 % 0 mm 0.0 W/m2 CLR
07:47 -17.2 °C -18.9 °C 34899.5 hPa WNW 23.8 km/h 23.8 km/h 79 % 0 mm 0.0 W/m2 CLR
07:48 -17.2 °C -18.9 °C 34899.5 hPa West 18.2 km/h 18.2 km/h 79 % 0 mm 0.0 W/m2 CLR
07:53 -16.8 °C -18.7 °C 34909.7 hPa WNW 23.8 km/h 23.8 km/h 79 % 0 mm 0.0 W/m2 CLR
07:55 -16.8 °C -18.7 °C 34909.7 hPa WNW 29.8 km/h 29.8 km/h 79 % 0 mm 0.0 W/m2 CLR
08:00 -17.2 °C -18.9 °C 34909.7 hPa WNW 23.8 km/h 23.8 km/h 79 % 0 mm 0.0 W/m2 CLR
08:04 -17.4 °C -19.3 °C 34909.7 hPa WNW 26.9 km/h 26.9 km/h 79 % 0 mm 0.0 W/m2 CLR
08:09 -17.8 °C -19.6 °C 34909.7 hPa West 29.8 km/h 29.8 km/h 79 % 0 mm 0.0 W/m2 OVC
08:14 -17.8 °C -19.6 °C 34909.7 hPa WNW 29.8 km/h 29.8 km/h 79 % 0 mm 0.0 W/m2 OVC
08:16 -17.8 °C -19.6 °C 34909.7 hPa NW 29.8 km/h 29.8 km/h 79 % 0 mm 0.0 W/m2 OVC
08:21 -17.4 °C -19.3 °C 34909.7 hPa WNW 26.9 km/h 26.9 km/h 79 % 0 mm 5.0 W/m2 OVC
08:26 -17.2 °C -18.9 °C 34909.7 hPa WNW 20.9 km/h 20.9 km/h 79 % 0 mm 7.0 W/m2 BKN
08:27 -17.2 °C -18.9 °C 34909.7 hPa WNW 20.9 km/h 20.9 km/h 79 % 0 mm 7.0 W/m2 BKN
08:32 -17.2 °C -18.9 °C 34909.7 hPa NW 23.8 km/h 23.8 km/h 79 % 0 mm 11.0 W/m2 BKN
08:35 -17.2 °C -18.9 °C 34923.2 hPa NW 18.2 km/h 18.2 km/h 79 % 0 mm 11.0 W/m2 BKN
08:40 -17.2 °C -18.8 °C 34923.2 hPa WNW 15 km/h 15 km/h 80 % 0 mm 14.0 W/m2 BKN
08:41 -17.2 °C -18.8 °C 34923.2 hPa NW 17.9 km/h 17.9 km/h 80 % 0 mm 14.0 W/m2 BKN
08:46 -17.4 °C -19.2 °C 34933.4 hPa WNW 9 km/h 9 km/h 80 % 0 mm 16.0 W/m2 BKN
08:51 -17.8 °C -19.7 °C 34933.4 hPa Calm     78 % 0 mm 19.0 W/m2 BKN
08:52 -17.8 °C -19.7 °C 34933.4 hPa Calm     78 % 0 mm 19.0 W/m2 BKN
08:57 -17.8 °C -19.6 °C 34933.4 hPa Calm     79 % 0 mm 25.0 W/m2 BKN
08:58 -17.8 °C -19.6 °C 34933.4 hPa Calm     79 % 0 mm 25.0 W/m2 BKN
08:59 -18.1 °C -19.9 °C 34933.4 hPa Calm     79 % 0 mm 35.0 W/m2 BKN
09:03 -18.1 °C -19.9 °C 34933.4 hPa Calm     79 % 0 mm 44.0 W/m2 BKN
09:08 -18.1 °C -19.7 °C 34933.4 hPa WNW 11.9 km/h 11.9 km/h 81 % 0 mm 56.0 W/m2 SCT
09:10 -18.1 °C -19.7 °C 34933.4 hPa West 10.3 km/h 10.3 km/h 81 % 0 mm 58.0 W/m2 SCT
09:14 -18.1 °C -19.7 °C 34946.9 hPa WNW 17.9 km/h 17.9 km/h 81 % 0 mm 70.0 W/m2 SCT
09:19 -18.1 °C -19.9 °C 34946.9 hPa WNW 15 km/h 15 km/h 79 % 0 mm 79.0 W/m2 FEW
09:20 -18.1 °C -19.9 °C 34933.4 hPa WNW 15.6 km/h 15.6 km/h 79 % 0 mm 79.0 W/m2 FEW
09:25 -17.8 °C -19.6 °C 34946.9 hPa WNW 20.9 km/h 20.9 km/h 79 % 0 mm 97.0 W/m2 FEW
09:27 -17.4 °C -19.3 °C 34933.4 hPa NW 20.9 km/h 20.9 km/h 78 % 0 mm 83.0 W/m2 CLR
09:30 -17.2 °C -19.1 °C 34946.9 hPa WNW 15 km/h 15 km/h 78 % 0 mm 111.0 W/m2 CLR
09:33 -16.8 °C -18.8 °C 34946.9 hPa WNW 17.9 km/h 17.9 km/h 78 % 0 mm 120.0 W/m2 CLR
09:38 -16.2 °C -18.2 °C 34957.1 hPa West 11.9 km/h 11.9 km/h 78 % 0 mm 134.0 W/m2 CLR
09:39 -16.2 °C -18.2 °C 34957.1 hPa West 9 km/h 9 km/h 77 % 0 mm 134.0 W/m2 CLR
09:44 -15.9 °C -17.9 °C 34957.1 hPa WNW 11.9 km/h 11.9 km/h 77 % 0 mm 144.0 W/m2 CLR
09:45 -15.9 °C -17.9 °C 34957.1 hPa NW 15.6 km/h 16.3 km/h 77 % 0 mm 153.0 W/m2 CLR
09:46 -15.9 °C -17.9 °C 34957.1 hPa NW 23.8 km/h 23.8 km/h 77 % 0 mm 155.0 W/m2 CLR
09:51 -15.9 °C -17.9 °C 34957.1 hPa NW 35.7 km/h 35.7 km/h 77 % 0 mm 169.0 W/m2 CLR
09:56 -15.6 °C -17.7 °C 34957.1 hPa WNW 35.7 km/h 35.7 km/h 76 % 0 mm 172.0 W/m2 CLR
10:01 -15.3 °C -17.4 °C 34967.2 hPa WNW 26.9 km/h 26.9 km/h 76 % 0 mm 149.0 W/m2 CLR
10:02 -15.3 °C -17.4 °C 34967.2 hPa WNW 23.8 km/h 23.8 km/h 76 % 0 mm 153.0 W/m2 CLR
10:05 -15.3 °C -17.6 °C 34967.2 hPa WNW 29.8 km/h 29.8 km/h 75 % 0 mm 120.0 W/m2 CLR
10:07 -15.3 °C -17.6 °C 34967.2 hPa NNW 23.8 km/h 23.8 km/h 75 % 0 mm 163.0 W/m2 CLR
10:12 -15.3 °C -17.6 °C 34980.8 hPa WNW 29.8 km/h 29.8 km/h 75 % 0 mm 207.0 W/m2 CLR
10:17 -15 °C -17.3 °C 34980.8 hPa WNW 23.8 km/h 23.8 km/h 75 % 0 mm 239.0 W/m2 CLR
10:20 -15 °C -17.3 °C 34980.8 hPa NW 18.2 km/h 20.8 km/h 75 % 0 mm 246.0 W/m2 CLR
10:24 -15 °C -17.4 °C 34967.2 hPa West 29.8 km/h 29.8 km/h 74 % 0 mm 260.0 W/m2 CLR
10:25 -15 °C -17.3 °C 34980.8 hPa NW 20.9 km/h 20.9 km/h 75 % 0 mm 260.0 W/m2 CLR
10:30 -14.7 °C -17.1 °C 34980.8 hPa NW 29.8 km/h 29.8 km/h 74 % 0 mm 271.0 W/m2 CLR
10:31 -14.7 °C -17.1 °C 34980.8 hPa NW 29.8 km/h 29.8 km/h 74 % 0 mm 274.0 W/m2 CLR
10:36 -14.7 °C -17.1 °C 34980.8 hPa West 29.8 km/h 29.8 km/h 74 % 0 mm 283.0 W/m2 CLR
10:38 -14.7 °C -17.2 °C 34980.8 hPa WNW 35.7 km/h 35.7 km/h 73 % 0 mm 290.0 W/m2 CLR
10:41 -14.7 °C -17.2 °C 34990.9 hPa NNW 32.8 km/h 32.8 km/h 73 % 0 mm 297.0 W/m2 CLR
10:46 -14.7 °C -17.2 °C 34990.9 hPa WNW 26.9 km/h 26.9 km/h 73 % 0 mm 304.0 W/m2 CLR
10:47 -14.7 °C -17.2 °C 34990.9 hPa WNW 29.8 km/h 29.8 km/h 73 % 0 mm 304.0 W/m2 CLR
10:48 -14.7 °C -17.2 °C 34990.9 hPa NW 31.1 km/h 31.1 km/h 73 % 0 mm 309.0 W/m2 CLR
10:52 -14.7 °C -17.3 °C 34990.9 hPa NNW 33.6 km/h 33.6 km/h 72 % 0 mm 320.0 W/m2 CLR
10:55 -14.4 °C -17 °C 34990.9 hPa NW 38.8 km/h 38.8 km/h 72 % 0 mm 329.0 W/m2 CLR
10:58 -14.4 °C -17 °C 34990.9 hPa NNW 35.7 km/h 35.7 km/h 72 % 0 mm 330.0 W/m2 CLR
11:03 -14.4 °C -17.1 °C 34990.9 hPa NW 38.8 km/h 38.8 km/h 71 % 0 mm 374.0 W/m2 CLR
11:04 -14.4 °C -17 °C 35001.1 hPa NW 41.7 km/h 41.7 km/h 72 % 0 mm 374.0 W/m2 CLR
11:06 -14.1 °C -16.7 °C 35001.1 hPa NW 38.8 km/h 38.8 km/h 72 % 0 mm 394.0 W/m2 CLR
11:09 -14.1 °C -16.8 °C 35001.1 hPa WNW 38.8 km/h 38.8 km/h 71 % 0 mm 397.0 W/m2 CLR
11:14 -14.1 °C -16.8 °C 35001.1 hPa NW 31.1 km/h 31.1 km/h 71 % 0 mm 79.0 W/m2 CLR
11:16 -14.1 °C -16.8 °C 35001.1 hPa NNW 32.8 km/h 32.8 km/h 71 % 0 mm 394.0 W/m2 CLR
11:20 -14.1 °C -16.8 °C 35001.1 hPa NNW 38.8 km/h 38.8 km/h 71 % 0 mm 404.0 W/m2 CLR
11:21 -14.1 °C -16.8 °C 35001.1 hPa NNW 32.8 km/h 32.8 km/h 71 % 0 mm 404.0 W/m2 CLR
11:25 -14.1 °C -16.9 °C 35001.1 hPa NW 29.8 km/h 29.8 km/h 70 % 0 mm 380.0 W/m2 CLR
11:27 -14.1 °C -16.9 °C 34990.9 hPa NNW 29.8 km/h 29.8 km/h 70 % 0 mm 383.0 W/m2 CLR
11:30 -14.1 °C -16.9 °C 34990.9 hPa NNW 29.8 km/h 29.8 km/h 70 % 0 mm 380.0 W/m2 CLR
11:35 -14.1 °C -17 °C 34990.9 hPa NNW 23.8 km/h 23.8 km/h 69 % 0 mm 396.0 W/m2 CLR
11:36 -14.1 °C -17 °C 34990.9 hPa WNW 23.8 km/h 23.8 km/h 69 % 0 mm 396.0 W/m2 CLR
11:41 -14.1 °C -17.1 °C 34990.9 hPa NW 29.8 km/h 29.8 km/h 68 % 0 mm 408.0 W/m2 CLR
11:46 -14.1 °C -17.3 °C 34990.9 hPa NNW 33.6 km/h 33.6 km/h 67 % 0 mm 399.0 W/m2 CLR
11:51 -13.8 °C -16.8 °C 34990.9 hPa NW 23.8 km/h 23.8 km/h 68 % 0 mm 408.0 W/m2 CLR
11:52 -13.8 °C -16.9 °C 34990.9 hPa NW 23.3 km/h 23.3 km/h 67 % 0 mm 411.0 W/m2 CLR
11:57 -13.8 °C -16.9 °C 34990.9 hPa NNW 32.8 km/h 32.8 km/h 67 % 0 mm 408.0 W/m2 CLR
12:00 -13.8 °C -17.1 °C 34990.9 hPa NW 26.9 km/h 26.9 km/h 66 % 0 mm 413.0 W/m2 CLR
12:02 -13.8 °C -17.2 °C 34990.9 hPa NNW 32.8 km/h 32.8 km/h 65 % 0 mm 411.0 W/m2 CLR
12:07 -13.8 °C -17.1 °C 34990.9 hPa NNW 31.1 km/h 31.1 km/h 66 % 0 mm 415.0 W/m2 CLR
12:13 -13.4 °C -16.9 °C 34980.8 hPa NNW 23.8 km/h 23.8 km/h 65 % 0 mm 420.0 W/m2 CLR
12:16 -13.4 °C -16.9 °C 34980.8 hPa NNW 17.9 km/h 17.9 km/h 65 % 0 mm 422.0 W/m2 CLR
12:18 -13.4 °C -17 °C 34980.8 hPa NNW 33.6 km/h 33.6 km/h 64 % 0 mm 422.0 W/m2 CLR
12:22 -13.4 °C -17 °C 34980.8 hPa NW 26.9 km/h 26.9 km/h 64 % 0 mm 425.0 W/m2 CLR
12:25 -13.4 °C -17 °C 34980.8 hPa NNW 18.2 km/h 18.2 km/h 64 % 0 mm 427.0 W/m2 CLR
12:29 -13.4 °C -17 °C 34980.8 hPa NNW 28.5 km/h 28.5 km/h 64 % 0 mm 427.0 W/m2 CLR
12:31 -13.4 °C -17 °C 34980.8 hPa NNW 35.7 km/h 35.7 km/h 64 % 0 mm 431.0 W/m2 CLR
12:36 -13.4 °C -17.1 °C 34980.8 hPa NNW 23.8 km/h 23.8 km/h 63 % 0 mm 431.0 W/m2 CLR
12:37 -13.2 °C -16.7 °C 34980.8 hPa North 29.8 km/h 29.8 km/h 64 % 0 mm 431.0 W/m2 CLR
12:42 -13.4 °C -17.4 °C 34980.8 hPa NW 35.7 km/h 35.7 km/h 61 % 0 mm 432.0 W/m2 CLR
12:44 -13.2 °C -17.1 °C 34980.8 hPa WNW 41.7 km/h 41.7 km/h 61 % 0 mm 431.0 W/m2 CLR
12:49 -13.2 °C -17 °C 34980.8 hPa NW 29.8 km/h 29.8 km/h 62 % 0 mm 432.0 W/m2 CLR
12:54 -13.2 °C -17.2 °C 34967.2 hPa NNW 38.8 km/h 38.8 km/h 60 % 0 mm 434.0 W/m2 CLR
12:55 -13.2 °C -17.2 °C 34967.2 hPa NW 35.7 km/h 35.7 km/h 60 % 0 mm 434.0 W/m2 CLR
13:00 -12.8 °C -16.9 °C 34967.2 hPa WNW 29.8 km/h 29.8 km/h 60 % 0 mm 434.0 W/m2 CLR
13:05 -13.2 °C -17.3 °C 34967.2 hPa WNW 28.5 km/h 28.5 km/h 59 % 0 mm 434.0 W/m2 CLR
13:10 -13.2 °C -17.2 °C 34967.2 hPa NNW 35.7 km/h 35.7 km/h 60 % 0 mm 432.0 W/m2 CLR
13:12 -13.2 °C -17.2 °C 34967.2 hPa NW 38.8 km/h 38.8 km/h 60 % 0 mm 431.0 W/m2 CLR
13:17 -12.8 °C -16.9 °C 34957.1 hPa North 29.8 km/h 29.8 km/h 60 % 0 mm 432.0 W/m2 CLR
13:18 -12.8 °C -16.9 °C 34957.1 hPa NNW 35.7 km/h 35.7 km/h 60 % 0 mm 431.0 W/m2 CLR
13:23 -12.8 °C -17.1 °C 34957.1 hPa WNW 29.8 km/h 29.8 km/h 59 % 0 mm 431.0 W/m2 CLR
13:25 -12.8 °C -17.1 °C 34957.1 hPa NNW 29.8 km/h 29.8 km/h 59 % 0 mm 427.0 W/m2 CLR
13:29 -12.8 °C -17.2 °C 34957.1 hPa West 38.8 km/h 38.8 km/h 58 % 0 mm 427.0 W/m2 CLR
13:34 -12.8 °C -17.3 °C 34957.1 hPa NW 29.8 km/h 29.8 km/h 57 % 0 mm 424.0 W/m2 CLR
13:35 -12.8 °C -17.3 °C 34957.1 hPa NNW 29.8 km/h 29.8 km/h 57 % 0 mm 422.0 W/m2 CLR
13:40 -12.6 °C -16.9 °C 34957.1 hPa NNW 41.7 km/h 41.7 km/h 58 % 0 mm 420.0 W/m2 CLR
13:41 -12.6 °C -16.9 °C 34957.1 hPa NW 41.7 km/h 41.7 km/h 58 % 0 mm 420.0 W/m2 CLR
13:46 -12.6 °C -16.9 °C 34957.1 hPa NNW 41.7 km/h 41.7 km/h 58 % 0 mm 417.0 W/m2 CLR
13:47 -12.6 °C -16.9 °C 34957.1 hPa NNW 31.1 km/h 31.1 km/h 58 % 0 mm 417.0 W/m2 CLR
13:52 -12.6 °C -17.1 °C 34946.9 hPa North 41.7 km/h 41.7 km/h 57 % 0 mm 411.0 W/m2 CLR
13:54 -12.6 °C -17.1 °C 34946.9 hPa NNW 44.7 km/h 44.7 km/h 57 % 0 mm 411.0 W/m2 CLR
13:58 -12.6 °C -17.1 °C 34946.9 hPa NNW 47.6 km/h 47.6 km/h 57 % 0 mm 406.0 W/m2 CLR
13:59 -12.6 °C -17.2 °C 34946.9 hPa NW 47.6 km/h 47.6 km/h 56 % 0 mm 406.0 W/m2 CLR
14:03 -12.6 °C -17.2 °C 34946.9 hPa WNW 38.8 km/h 38.8 km/h 56 % 0 mm 403.0 W/m2 CLR
14:08 -12.6 °C -17.1 °C 34946.9 hPa NNW 38.8 km/h 38.8 km/h 57 % 0 mm 396.0 W/m2 CLR
14:13 -12.6 °C -17.1 °C 34933.4 hPa NNW 50.7 km/h 50.7 km/h 57 % 0 mm 392.0 W/m2 CLR
14:17 -12.2 °C -16.9 °C 34933.4 hPa NW 47.6 km/h 47.6 km/h 56 % 0 mm 385.0 W/m2 CLR
14:18 -12.2 °C -16.9 °C 34933.4 hPa NW 41.7 km/h 41.7 km/h 56 % 0 mm 383.0 W/m2 CLR
14:23 -12.2 °C -17 °C 34933.4 hPa NW 38.8 km/h 38.8 km/h 55 % 0 mm 378.0 W/m2 CLR
14:25 -12.6 °C -17.4 °C 34933.4 hPa NNW 47.6 km/h 47.6 km/h 54 % 0 mm 374.0 W/m2 CLR
14:30 -12.6 °C -17.3 °C 34933.4 hPa NNW 47.6 km/h 47.6 km/h 55 % 0 mm 369.0 W/m2 CLR
14:34 -12.2 °C -17 °C 34933.4 hPa NW 32.8 km/h 32.8 km/h 55 % 0 mm 360.0 W/m2 CLR
14:38 -12.2 °C -17.2 °C 34933.4 hPa NNW 44.7 km/h 44.7 km/h 54 % 0 mm 357.0 W/m2 CLR
14:43 -11.9 °C -16.7 °C 34933.4 hPa NW 35.7 km/h 35.7 km/h 55 % 0 mm 348.0 W/m2 CLR
14:44 -11.9 °C -16.7 °C 34933.4 hPa NW 32.8 km/h 32.8 km/h 55 % 0 mm 346.0 W/m2 CLR
14:49 -12.2 °C -17.2 °C 34933.4 hPa North 35.7 km/h 35.7 km/h 54 % 0 mm 338.0 W/m2 CLR
14:54 -11.9 °C -16.9 °C 34933.4 hPa WNW 29.8 km/h 29.8 km/h 54 % 0 mm 330.0 W/m2 CLR
14:55 -11.9 °C -16.9 °C 34933.4 hPa WNW 29.8 km/h 29.8 km/h 54 % 0 mm 330.0 W/m2 CLR
14:57 -12.2 °C -17.2 °C 34933.4 hPa NNW 32.8 km/h 32.8 km/h 54 % 0 mm 327.0 W/m2 CLR
15:02 -12.2 °C -17.3 °C 34933.4 hPa NW 38.8 km/h 38.8 km/h 53 % 0 mm 322.0 W/m2 CLR
15:07 -12.2 °C -17.3 °C 34933.4 hPa North 44.7 km/h 44.7 km/h 53 % 0 mm 309.0 W/m2 CLR
15:09 -11.9 °C -17 °C 34933.4 hPa NNW 41.7 km/h 41.7 km/h 53 % 0 mm 308.0 W/m2 CLR
15:12 -11.9 °C -17 °C 34933.4 hPa NW 35.7 km/h 35.7 km/h 53 % 0 mm 302.0 W/m2 CLR
15:16 -11.9 °C -17 °C 34933.4 hPa NNW 41.7 km/h 41.7 km/h 53 % 0 mm 295.0 W/m2 CLR
15:18 -11.9 °C -17.2 °C 34933.4 hPa NNW 50.7 km/h 50.7 km/h 52 % 0 mm 288.0 W/m2 CLR
15:23 -11.9 °C -17.2 °C 34933.4 hPa North 41.7 km/h 41.7 km/h 52 % 0 mm 281.0 W/m2 CLR
15:24 -11.9 °C -17.2 °C 34933.4 hPa North 41.7 km/h 41.7 km/h 52 % 0 mm 281.0 W/m2 CLR
15:25 -11.9 °C -17 °C 34933.4 hPa North 41.7 km/h 41.7 km/h 53 % 0 mm 278.0 W/m2 CLR
15:29 -11.9 °C -17 °C 34933.4 hPa NW 32.8 km/h 32.8 km/h 53 % 0 mm 276.0 W/m2 CLR
15:32 -11.9 °C -17 °C 34933.4 hPa NW 23.8 km/h 26.7 km/h 53 % 0 mm 271.0 W/m2 CLR
15:36 -11.9 °C -17.4 °C 34933.4 hPa North 44.7 km/h 44.7 km/h 50 % 0 mm 257.0 W/m2 CLR
15:38 -11.9 °C -17.4 °C 34933.4 hPa North 44.7 km/h 44.7 km/h 50 % 0 mm 244.0 W/m2 CLR
15:41 -11.9 °C -17.4 °C 34923.2 hPa NNW 35.7 km/h 35.7 km/h 50 % 0 mm 236.0 W/m2 CLR
15:44 -11.9 °C -17.3 °C 34933.4 hPa NW 29.8 km/h 31.4 km/h 51 % 0 mm 225.0 W/m2 CLR
15:46 -11.9 °C -17.3 °C 34933.4 hPa NW 35.7 km/h 35.7 km/h 51 % 0 mm 220.0 W/m2 CLR
15:51 -12.2 °C -17.4 °C 34933.4 hPa NW 29.8 km/h 29.8 km/h 52 % 0 mm 204.0 W/m2 CLR
15:52 -12.2 °C -17.4 °C 34933.4 hPa NW 29.8 km/h 29.8 km/h 52 % 0 mm 202.0 W/m2 CLR
15:57 -12.2 °C -17.6 °C 34933.4 hPa NW 41.7 km/h 41.7 km/h 51 % 0 mm 192.0 W/m2 CLR
16:00 -12.2 °C -17.6 °C 34923.2 hPa NW 28.5 km/h 28.5 km/h 51 % 0 mm 185.0 W/m2 CLR
16:02 -12.6 °C -18 °C 34933.4 hPa NNW 32.8 km/h 32.8 km/h 50 % 0 mm 176.0 W/m2 CLR
16:07 -12.2 °C -17.7 °C 34933.4 hPa North 38.8 km/h 38.8 km/h 50 % 0 mm 162.0 W/m2 CLR
16:10 -12.2 °C -17.7 °C 34933.4 hPa WNW 29.8 km/h 29.8 km/h 50 % 0 mm 155.0 W/m2 CLR
16:15 -12.6 °C -18.2 °C 34933.4 hPa NNW 32.8 km/h 32.8 km/h 49 % 0 mm 137.0 W/m2 CLR
16:20 -12.6 °C -18.2 °C 34933.4 hPa North 35.7 km/h 35.7 km/h 49 % 0 mm 123.0 W/m2 CLR
16:25 -12.6 °C -18.2 °C 34933.4 hPa NNW 44.7 km/h 44.7 km/h 49 % 0 mm 109.0 W/m2 CLR
16:26 -12.6 °C -18.2 °C 34946.9 hPa NW 44.7 km/h 44.7 km/h 49 % 0 mm 107.0 W/m2 CLR
16:31 -12.6 °C -18.2 °C 34946.9 hPa NNW 41.7 km/h 41.7 km/h 49 % 0 mm 93.0 W/m2 CLR
16:36 -12.6 °C -18.2 °C 34946.9 hPa NW 41.7 km/h 41.7 km/h 49 % 0 mm 79.0 W/m2 FEW
16:38 -12.6 °C -18.2 °C 34946.9 hPa North 44.7 km/h 44.7 km/h 49 % 0 mm 63.0 W/m2 FEW
16:43 -12.6 °C -18 °C 34946.9 hPa NNW 35.7 km/h 35.7 km/h 50 % 0 mm 54.0 W/m2 SCT
16:48 -12.8 °C -18.3 °C 34946.9 hPa NNW 50.7 km/h 50.7 km/h 50 % 0 mm 47.0 W/m2 SCT
16:51 -12.8 °C -17.9 °C 34946.9 hPa NNW 29.8 km/h 29.8 km/h 53 % 0 mm 40.0 W/m2 BKN
16:56 -12.8 °C -17.7 °C 34946.9 hPa NNW 41.4 km/h 41.4 km/h 54 % 0 mm 32.0 W/m2 BKN
16:57 -12.8 °C -17.6 °C 34946.9 hPa NNW 47.6 km/h 47.6 km/h 55 % 0 mm 30.0 W/m2 BKN
17:02 -12.8 °C -17.6 °C 34957.1 hPa NW 17.9 km/h 17.9 km/h 55 % 0 mm 16.0 W/m2 BKN
17:07 -12.8 °C -17.4 °C 34957.1 hPa NNW 25.9 km/h 25.9 km/h 56 % 0 mm 14.0 W/m2 BKN
17:11 -12.8 °C -17.3 °C 34957.1 hPa NW 32.8 km/h 32.8 km/h 57 % 0 mm 12.0 W/m2 BKN
17:12 -12.8 °C -17.3 °C 34957.1 hPa NNW 29.8 km/h 29.8 km/h 57 % 0 mm 12.0 W/m2 BKN
17:17 -13.2 °C -17.6 °C 34957.1 hPa NW 20.9 km/h 20.9 km/h 57 % 0 mm 11.0 W/m2 BKN
17:20 -13.2 °C -17.4 °C 34957.1 hPa NW 20.9 km/h 20.9 km/h 58 % 0 mm 11.0 W/m2 BKN
17:23 -13.2 °C -17.4 °C 34957.1 hPa NW 20.9 km/h 20.9 km/h 58 % 0 mm 9.0 W/m2 BKN
17:28 -13.2 °C -17.2 °C 34957.1 hPa NW 29.8 km/h 29.8 km/h 60 % 0 mm 7.0 W/m2 BKN
17:29 -13.2 °C -17.2 °C 34957.1 hPa NW 35.7 km/h 35.7 km/h 60 % 0 mm 7.0 W/m2 BKN
17:34 -13.4 °C -17.5 °C 34957.1 hPa NW 15 km/h 15 km/h 60 % 0 mm 0.0 W/m2 OVC
17:35 -13.4 °C -17.5 °C 34957.1 hPa WNW 20.8 km/h 20.8 km/h 60 % 0 mm 0.0 W/m2 OVC
17:40 -13.4 °C -17.4 °C 34957.1 hPa WNW 15.6 km/h 15.6 km/h 61 % 0 mm 0.0 W/m2 OVC
17:43 -13.4 °C -17.4 °C 34957.1 hPa NW 23.8 km/h 23.8 km/h 61 % 0 mm 0.0 W/m2 CLR
17:46 -13.4 °C -17.3 °C 34967.2 hPa WNW 23.8 km/h 23.8 km/h 62 % 0 mm 0.0 W/m2 CLR
17:51 -13.8 °C -17.6 °C 34967.2 hPa NW 23.8 km/h 23.8 km/h 62 % 0 mm 0.0 W/m2 CLR
17:53 -13.8 °C -17.4 °C 34967.2 hPa WNW 29.8 km/h 29.8 km/h 63 % 0 mm 0.0 W/m2 CLR
17:56 -13.8 °C -17.4 °C 34967.2 hPa West 29.8 km/h 29.8 km/h 63 % 0 mm 0.0 W/m2 CLR
17:59 -13.8 °C -17.3 °C 34967.2 hPa WNW 18.2 km/h 18.2 km/h 64 % 0 mm 0.0 W/m2 CLR
18:03 -13.8 °C -17.3 °C 34967.2 hPa WNW 20.9 km/h 20.9 km/h 64 % 0 mm 0.0 W/m2 CLR
18:06 -13.8 °C -17.2 °C 34967.2 hPa NW 17.9 km/h 17.9 km/h 65 % 0 mm 0.0 W/m2 CLR
18:08 -13.8 °C -17.2 °C 34967.2 hPa WNW 23.8 km/h 23.8 km/h 65 % 0 mm 0.0 W/m2 CLR
18:13 -13.8 °C -17.2 °C 34967.2 hPa NNW 26.9 km/h 26.9 km/h 65 % 0 mm 0.0 W/m2 CLR
18:18 -13.8 °C -17.1 °C 34967.2 hPa NW 26.9 km/h 26.9 km/h 66 % 0 mm 0.0 W/m2 CLR
18:23 -13.8 °C -17.1 °C 34967.2 hPa NW 33.6 km/h 33.6 km/h 66 % 0 mm 0.0 W/m2 CLR
18:24 -13.8 °C -17.1 °C 34967.2 hPa NW 32.8 km/h 32.8 km/h 66 % 0 mm 0.0 W/m2 CLR
18:29 -13.8 °C -17.1 °C 34967.2 hPa NW 35.7 km/h 35.7 km/h 66 % 0 mm 0.0 W/m2 CLR
18:34 -13.8 °C -17.1 °C 34967.2 hPa WNW 35.7 km/h 35.7 km/h 66 % 0 mm 0.0 W/m2 CLR
18:38 -13.8 °C -17.1 °C 34967.2 hPa WNW 29.8 km/h 29.8 km/h 66 % 0 mm 0.0 W/m2 CLR
18:42 -14.1 °C -17.3 °C 34967.2 hPa WNW 20.9 km/h 20.9 km/h 66 % 0 mm 0.0 W/m2 CLR
18:44 -14.1 °C -17.3 °C 34967.2 hPa NW 23.8 km/h 23.8 km/h 66 % 0 mm 0.0 W/m2 CLR
18:47 -14.1 °C -17.3 °C 34967.2 hPa WNW 32.8 km/h 32.8 km/h 66 % 0 mm 0.0 W/m2 CLR
18:50 -14.1 °C -17.3 °C 34967.2 hPa WNW 26.9 km/h 26.9 km/h 66 % 0 mm 0.0 W/m2 CLR
18:55 -14.1 °C -17.3 °C 34967.2 hPa West 33.6 km/h 33.6 km/h 67 % 0 mm 0.0 W/m2 CLR
18:58 -14.1 °C -17.3 °C 34967.2 hPa West 26.9 km/h 26.9 km/h 67 % 0 mm 0.0 W/m2 CLR
19:02 -14.1 °C -17.3 °C 34980.8 hPa WNW 29.8 km/h 29.8 km/h 67 % 0 mm 0.0 W/m2 CLR
19:06 -14.1 °C -17.3 °C 34980.8 hPa WNW 25.9 km/h 25.9 km/h 67 % 0 mm 0.0 W/m2 CLR
19:08 -14.1 °C -17.1 °C 34980.8 hPa West 18.2 km/h 18.2 km/h 68 % 0 mm 0.0 W/m2 CLR
19:13 -14.1 °C -17 °C 34980.8 hPa West 20.9 km/h 20.9 km/h 69 % 0 mm 0.0 W/m2 CLR
19:14 -14.1 °C -17 °C 34980.8 hPa WNW 29.8 km/h 29.8 km/h 69 % 0 mm 0.0 W/m2 CLR
19:17 -14.1 °C -17 °C 34980.8 hPa WNW 35.7 km/h 35.7 km/h 69 % 0 mm 0.0 W/m2 CLR
19:20 -14.4 °C -17.4 °C 34980.8 hPa WNW 32.8 km/h 32.8 km/h 68 % 0 mm 0.0 W/m2 CLR
19:25 -14.4 °C -17.4 °C 34980.8 hPa WNW 38.8 km/h 38.8 km/h 68 % 0 mm 0.0 W/m2 CLR
19:28 -14.4 °C -17.4 °C 34980.8 hPa WNW 35.7 km/h 35.7 km/h 68 % 0 mm 0.0 W/m2 CLR
19:31 -14.4 °C -17.4 °C 34980.8 hPa NW 32.8 km/h 32.8 km/h 68 % 0 mm 0.0 W/m2 CLR
19:36 -14.4 °C -17.4 °C 34980.8 hPa NW 29.8 km/h 29.8 km/h 68 % 0 mm 0.0 W/m2 CLR
19:41 -14.4 °C -17.4 °C 34990.9 hPa NW 35.7 km/h 35.7 km/h 68 % 0 mm 0.0 W/m2 CLR
19:46 -14.1 °C -17.1 °C 34990.9 hPa NW 38.8 km/h 38.8 km/h 68 % 0 mm 0.0 W/m2 CLR
19:51 -14.1 °C -17.1 °C 34990.9 hPa NNW 41.7 km/h 41.7 km/h 68 % 0 mm 0.0 W/m2 CLR
19:52 -14.1 °C -17.1 °C 34990.9 hPa NW 41.7 km/h 41.7 km/h 68 % 0 mm 0.0 W/m2 CLR
19:55 -14.1 °C -17 °C 34990.9 hPa NW 46.7 km/h 46.7 km/h 69 % 0 mm 0.0 W/m2 CLR
19:57 -14.1 °C -17 °C 34990.9 hPa NNW 54.4 km/h 54.4 km/h 69 % 0 mm 0.0 W/m2 CLR
20:02 -14.1 °C -16.9 °C 34990.9 hPa NW 56.6 km/h 56.6 km/h 70 % 0 mm 0.0 W/m2 CLR
20:03 -14.1 °C -16.9 °C 34990.9 hPa NW 44.7 km/h 44.7 km/h 70 % 0 mm 0.0 W/m2 CLR
20:08 -14.1 °C -16.9 °C 34990.9 hPa NW 44.7 km/h 44.7 km/h 70 % 0 mm 0.0 W/m2 CLR
20:10 -14.1 °C -16.9 °C 34990.9 hPa NW 44.7 km/h 44.7 km/h 70 % 0 mm 0.0 W/m2 CLR
20:14 -14.1 °C -16.9 °C 35001.1 hPa NW 47.6 km/h 47.6 km/h 70 % 0 mm 0.0 W/m2 CLR
20:19 -14.1 °C -16.9 °C 35001.1 hPa NW 47.6 km/h 47.6 km/h 70 % 0 mm 0.0 W/m2 CLR
20:24 -14.1 °C -16.8 °C 35001.1 hPa NW 41.7 km/h 41.7 km/h 71 % 0 mm 0.0 W/m2 CLR
20:26 -14.1 °C -16.8 °C 35001.1 hPa NW 44.7 km/h 44.7 km/h 71 % 0 mm 0.0 W/m2 CLR
20:30 -14.1 °C -16.8 °C 35001.1 hPa NW 44.7 km/h 44.7 km/h 71 % 0 mm 0.0 W/m2 CLR
20:35 -14.1 °C -16.8 °C 35001.1 hPa NW 53.6 km/h 53.6 km/h 71 % 0 mm 0.0 W/m2 CLR
20:37 -14.1 °C -16.8 °C 35001.1 hPa WNW 36.2 km/h 36.2 km/h 71 % 0 mm 0.0 W/m2 CLR
20:41 -14.1 °C -16.8 °C 35001.1 hPa NW 38.8 km/h 38.8 km/h 71 % 0 mm 0.0 W/m2 CLR
20:46 -14.1 °C -16.7 °C 35001.1 hPa NW 47.6 km/h 47.6 km/h 72 % 0 mm 0.0 W/m2 CLR
20:49 -14.1 °C -16.7 °C 35001.1 hPa NW 41.4 km/h 41.4 km/h 72 % 0 mm 0.0 W/m2 CLR
20:52 -14.1 °C -16.7 °C 35001.1 hPa NW 41.7 km/h 41.7 km/h 72 % 0 mm 0.0 W/m2 CLR
20:55 -14.4 °C -17 °C 35001.1 hPa NW 38.8 km/h 38.8 km/h 72 % 0 mm 0.0 W/m2 CLR
20:58 -14.4 °C -17 °C 35001.1 hPa WNW 38.8 km/h 38.8 km/h 72 % 0 mm 0.0 W/m2 CLR
21:03 -14.4 °C -17 °C 35014.6 hPa NW 29.8 km/h 29.8 km/h 72 % 0 mm 0.0 W/m2 CLR
21:08 -14.4 °C -16.9 °C 35014.6 hPa NW 35.7 km/h 35.7 km/h 73 % 0 mm 0.0 W/m2 CLR
21:11 -14.4 °C -17 °C 35014.6 hPa NW 35.7 km/h 35.7 km/h 72 % 0 mm 0.0 W/m2 CLR
21:12 -14.4 °C -16.9 °C 35014.6 hPa NW 29.8 km/h 29.8 km/h 73 % 0 mm 0.0 W/m2 CLR
21:17 -14.4 °C -16.9 °C 35014.6 hPa NW 26.9 km/h 26.9 km/h 73 % 0 mm 0.0 W/m2 CLR
21:22 -14.4 °C -16.9 °C 35014.6 hPa NW 33.6 km/h 33.6 km/h 73 % 0 mm 0.0 W/m2 CLR
21:23 -14.4 °C -16.9 °C 35014.6 hPa NNW 32.8 km/h 32.8 km/h 73 % 0 mm 0.0 W/m2 CLR
21:28 -14.4 °C -16.8 °C 35014.6 hPa NNW 38.8 km/h 38.8 km/h 74 % 0 mm 0.0 W/m2 CLR
21:29 -14.4 °C -16.8 °C 35014.6 hPa NW 38.8 km/h 38.8 km/h 74 % 0 mm 0.0 W/m2 CLR
21:34 -14.4 °C -16.8 °C 35014.6 hPa NW 29.8 km/h 29.8 km/h 74 % 0 mm 0.0 W/m2 CLR
21:39 -14.4 °C -16.8 °C 35014.6 hPa NW 29.8 km/h 29.8 km/h 74 % 0 mm 0.0 W/m2 CLR
21:41 -14.4 °C -16.8 °C 35014.6 hPa North 29.8 km/h 29.8 km/h 74 % 0 mm 0.0 W/m2 CLR
21:46 -14.4 °C -16.8 °C 35014.6 hPa NW 32.8 km/h 32.8 km/h 74 % 0 mm 0.0 W/m2 CLR
21:47 -14.4 °C -16.8 °C 35014.6 hPa NW 38.8 km/h 38.8 km/h 74 % 0 mm 0.0 W/m2 CLR
21:52 -14.4 °C -16.8 °C 35014.6 hPa NW 29.8 km/h 29.8 km/h 74 % 0 mm 0.0 W/m2 CLR
21:56 -14.4 °C -16.7 °C 35014.6 hPa NW 29.8 km/h 29.8 km/h 75 % 0 mm 0.0 W/m2 CLR
21:57 -14.4 °C -16.8 °C 35014.6 hPa NW 38.8 km/h 38.8 km/h 74 % 0 mm 0.0 W/m2 CLR
22:02 -14.4 °C -16.8 °C 35014.6 hPa WNW 29.8 km/h 29.8 km/h 74 % 0 mm 0.0 W/m2 CLR
22:03 -14.4 °C -16.8 °C 35014.6 hPa NW 29.8 km/h 29.8 km/h 74 % 0 mm 0.0 W/m2 CLR
22:07 -14.4 °C -16.8 °C 35014.6 hPa NW 44.7 km/h 44.7 km/h 74 % 0 mm 0.0 W/m2 CLR
22:09 -14.4 °C -16.8 °C 35014.6 hPa NW 47.6 km/h 47.6 km/h 74 % 0 mm 0.0 W/m2 CLR
22:14 -14.4 °C -16.8 °C 35014.6 hPa NW 35.7 km/h 35.7 km/h 74 % 0 mm 0.0 W/m2 CLR
22:18 -14.4 °C -16.8 °C 35014.6 hPa NW 33.6 km/h 33.6 km/h 74 % 0 mm 0.0 W/m2 CLR
22:20 -14.4 °C -16.8 °C 35014.6 hPa WNW 32.8 km/h 32.8 km/h 74 % 0 mm 0.0 W/m2 CLR
22:25 -14.1 °C -16.5 °C 35014.6 hPa NW 29.8 km/h 29.8 km/h 74 % 0 mm 0.0 W/m2 CLR
22:30 -14.4 °C -16.8 °C 35014.6 hPa WNW 29.8 km/h 29.8 km/h 74 % 0 mm 0.0 W/m2 CLR
22:31 -14.4 °C -16.8 °C 35014.6 hPa WNW 29.8 km/h 29.8 km/h 74 % 0 mm 0.0 W/m2 CLR
22:36 -14.4 °C -16.8 °C 35014.6 hPa NW 29.8 km/h 29.8 km/h 74 % 0 mm 0.0 W/m2 CLR
22:41 -14.4 °C -16.8 °C 35014.6 hPa West 28.5 km/h 28.5 km/h 74 % 0 mm 0.0 W/m2 CLR
22:43 -14.4 °C -16.8 °C 35014.6 hPa WNW 29.8 km/h 29.8 km/h 74 % 0 mm 0.0 W/m2 CLR
22:47 -14.4 °C -16.8 °C 35014.6 hPa WNW 17.9 km/h 17.9 km/h 74 % 0 mm 0.0 W/m2 CLR
22:52 -14.4 °C -16.8 °C 35014.6 hPa SW 26.9 km/h 26.9 km/h 74 % 0 mm 0.0 W/m2 CLR
22:53 -14.4 °C -16.8 °C 35014.6 hPa West 26.9 km/h 26.9 km/h 74 % 0 mm 0.0 W/m2 CLR
22:54 -14.4 °C -16.8 °C 35014.6 hPa West 17.9 km/h 17.9 km/h 74 % 0 mm 0.0 W/m2 CLR
22:58 -14.4 °C -16.8 °C 35014.6 hPa West 26.9 km/h 26.9 km/h 74 % 0 mm 0.0 W/m2 CLR
23:03 -14.4 °C -16.7 °C 35014.6 hPa WNW 29.8 km/h 29.8 km/h 75 % 0 mm 0.0 W/m2 CLR
23:04 -14.4 °C -16.7 °C 35014.6 hPa West 29.8 km/h 29.8 km/h 75 % 0 mm 0.0 W/m2 CLR
23:09 -14.4 °C -16.6 °C 35014.6 hPa WNW 23.8 km/h 23.8 km/h 76 % 0 mm 0.0 W/m2 CLR
23:10 -14.4 °C -16.6 °C 35014.6 hPa NW 29.8 km/h 29.8 km/h 76 % 0 mm 0.0 W/m2 CLR
23:15 -14.4 °C -16.6 °C 35014.6 hPa WNW 35.7 km/h 35.7 km/h 76 % 0 mm 0.0 W/m2 CLR
23:17 -14.7 °C -17 °C 35024.8 hPa WNW 29.8 km/h 29.8 km/h 75 % 0 mm 0.0 W/m2 CLR
23:20 -14.7 °C -17 °C 35024.8 hPa WNW 35.7 km/h 35.7 km/h 75 % 0 mm 0.0 W/m2 CLR
23:25 -14.7 °C -17 °C 35024.8 hPa West 33.6 km/h 33.6 km/h 75 % 0 mm 0.0 W/m2 CLR
23:26 -14.7 °C -17 °C 35024.8 hPa WNW 32.8 km/h 32.8 km/h 75 % 0 mm 0.0 W/m2 CLR
23:29 -14.7 °C -17 °C 35024.8 hPa WNW 29.8 km/h 29.8 km/h 75 % 0 mm 0.0 W/m2 CLR
23:32 -14.7 °C -17 °C 35024.8 hPa WNW 29.8 km/h 29.8 km/h 75 % 0 mm 0.0 W/m2 CLR
23:35 -14.7 °C -17 °C 35024.8 hPa WNW 29.8 km/h 29.8 km/h 75 % 0 mm 0.0 W/m2 CLR
23:37 -14.4 °C -16.7 °C 35024.8 hPa West 26.9 km/h 26.9 km/h 75 % 0 mm 0.0 W/m2 CLR
23:42 -14.4 °C -16.7 °C 35038.3 hPa WNW 29.8 km/h 29.8 km/h 75 % 0 mm 0.0 W/m2 CLR
23:43 -14.4 °C -16.7 °C 35038.3 hPa West 15 km/h 15 km/h 75 % 0 mm 0.0 W/m2 CLR
23:45 -14.4 °C -16.7 °C 35038.3 hPa West 23.8 km/h 23.8 km/h 75 % 0 mm 0.0 W/m2 CLR
23:48 -14.7 °C -17 °C 35038.3 hPa West 20.9 km/h 20.9 km/h 75 % 0 mm 0.0 W/m2 CLR
23:51 -14.7 °C -17 °C 35038.3 hPa WNW 17.9 km/h 17.9 km/h 75 % 0 mm 0.0 W/m2 CLR
23:53 -14.7 °C -17 °C 35038.3 hPa WNW 17.9 km/h 17.9 km/h 75 % 0 mm 0.0 W/m2 CLR
23:58 -14.7 °C -17 °C 35038.3 hPa WNW 26.9 km/h 26.9 km/h 75 % 0 mm 0.0 W/m2 CLR
23:59 -14.7 °C -17 °C 35038.3 hPa WNW 20.9 km/h 20.9 km/h 75 % 0 mm 0.0 W/m2 CLR
Lo Temps de Massalio
Compliments of Weather Underground - 1.5 mb